createdAt,value
2023-02-05T00:01:53.948Z,5.6
2023-02-05T00:07:53.879Z,5.5
2023-02-05T00:13:53.900Z,5.5
2023-02-05T00:19:53.983Z,5.7
2023-02-05T00:25:53.904Z,5.6
2023-02-05T00:31:53.955Z,5.6
2023-02-05T00:37:53.897Z,5.6
2023-02-05T00:43:53.880Z,5.6
2023-02-05T00:49:53.871Z,5.4
2023-02-05T00:55:53.945Z,5.4
2023-02-05T01:01:53.886Z,5.4
2023-02-05T01:07:53.875Z,5.3
2023-02-05T01:13:53.911Z,5.4
2023-02-05T01:19:53.879Z,5.5
2023-02-05T01:25:53.896Z,5.4
2023-02-05T01:31:54.034Z,5.4
2023-02-05T01:37:53.885Z,5.4
2023-02-05T01:43:53.881Z,5.4
2023-02-05T01:49:53.897Z,5.3
2023-02-05T01:55:53.869Z,5.2
2023-02-05T02:01:53.930Z,5.3
2023-02-05T02:07:53.916Z,5.1
2023-02-05T02:13:53.894Z,5.4
2023-02-05T02:19:53.865Z,5.4
2023-02-05T02:25:53.904Z,5.3
2023-02-05T02:31:53.867Z,5.3
2023-02-05T02:37:53.863Z,5.3
2023-02-05T02:43:53.872Z,5.3
2023-02-05T02:49:53.927Z,5
2023-02-05T02:55:53.865Z,5.3
2023-02-05T03:01:54.197Z,5.4
2023-02-05T03:07:53.898Z,5.5
2023-02-05T03:13:53.853Z,5.6
2023-02-05T03:19:53.880Z,5.6
2023-02-05T03:25:53.880Z,5.7
2023-02-05T03:31:53.856Z,5.5
2023-02-05T03:37:53.975Z,5.3
2023-02-05T03:43:53.850Z,5.1
2023-02-05T03:49:53.864Z,4.7
2023-02-05T03:55:53.905Z,4.5
2023-02-05T04:01:53.977Z,4.3
2023-02-05T04:07:53.851Z,4.3
2023-02-05T04:13:53.880Z,4.3
2023-02-05T04:19:53.857Z,4.8
2023-02-05T04:25:53.872Z,4.9
2023-02-05T04:31:54.246Z,5
2023-02-05T04:37:53.872Z,5.1
2023-02-05T04:43:53.906Z,4.6
2023-02-05T04:49:53.883Z,5.2
2023-02-05T04:55:53.873Z,5.1
2023-02-05T05:01:53.855Z,5.1
2023-02-05T05:07:53.888Z,4.9
2023-02-05T05:13:53.884Z,5.1
2023-02-05T05:19:53.833Z,4.9
2023-02-05T05:25:53.875Z,4.8
2023-02-05T05:31:53.888Z,4.6
2023-02-05T05:37:53.860Z,4.6
2023-02-05T05:43:54.037Z,4.7
2023-02-05T05:49:53.874Z,4.8
2023-02-05T05:55:53.881Z,4.6
2023-02-05T06:01:53.876Z,4.7
2023-02-05T06:07:53.869Z,5
2023-02-05T06:13:53.858Z,5.2
2023-02-05T06:19:53.878Z,5.3
2023-02-05T06:25:53.849Z,5.4
2023-02-05T06:31:53.906Z,5.5
2023-02-05T06:37:53.875Z,5.6
2023-02-05T06:43:53.872Z,5.6
2023-02-05T06:49:53.849Z,5.7
2023-02-05T06:55:53.869Z,5.7
2023-02-05T07:01:53.917Z,5.7
2023-02-05T07:07:53.882Z,5.5
2023-02-05T07:13:53.864Z,5.4
2023-02-05T07:19:53.844Z,5.6
2023-02-05T07:25:53.897Z,5.7
2023-02-05T07:31:54.100Z,5.8
2023-02-05T07:37:53.846Z,5.9
2023-02-05T07:43:53.858Z,5.9
2023-02-05T07:49:53.876Z,5.8
2023-02-05T07:55:53.864Z,5.9
2023-02-05T08:01:53.838Z,5.8
2023-02-05T08:07:53.865Z,5.8
2023-02-05T08:13:54.044Z,5.7
2023-02-05T08:19:53.851Z,5.8
2023-02-05T08:25:53.986Z,5.8
2023-02-05T08:31:53.958Z,5.7
2023-02-05T08:37:53.836Z,5.4
2023-02-05T08:43:53.872Z,5.6
2023-02-05T08:49:53.855Z,5.5
2023-02-05T08:55:53.840Z,5.4
2023-02-05T09:01:53.936Z,5.4
2023-02-05T09:07:53.843Z,5.4
2023-02-05T09:13:53.845Z,5.3
2023-02-05T09:19:53.840Z,5.4
2023-02-05T09:25:53.862Z,5.4
2023-02-05T09:31:53.877Z,5.4
2023-02-05T09:37:53.863Z,5.4
2023-02-05T09:43:53.847Z,5.3
2023-02-05T09:49:53.814Z,5.3
2023-02-05T09:55:53.845Z,5.3
2023-02-05T10:01:53.833Z,5.1
2023-02-05T10:07:53.955Z,5.2
2023-02-05T10:13:53.844Z,5.1
2023-02-05T10:19:53.859Z,5.1
2023-02-05T10:25:53.812Z,5.2
2023-02-05T10:31:53.911Z,5.1
2023-02-05T10:37:53.823Z,5.1
2023-02-05T10:43:53.834Z,5.1
2023-02-05T10:49:55.324Z,5.1
2023-02-05T10:55:53.879Z,4.9
2023-02-05T11:01:53.846Z,4.9
2023-02-05T11:07:53.863Z,5
2023-02-05T11:13:53.814Z,5
2023-02-05T11:19:53.797Z,5.1
2023-02-05T11:25:53.929Z,5.2
2023-02-05T11:31:54.038Z,5.2
2023-02-05T11:37:53.811Z,5.3
2023-02-05T11:43:53.841Z,5.1
2023-02-05T11:49:53.798Z,5.3
2023-02-05T11:55:53.828Z,5.4
2023-02-05T12:01:54.138Z,5.3
2023-02-05T12:07:53.813Z,5.4
2023-02-05T12:13:53.827Z,5.4
2023-02-05T12:19:53.855Z,5.3
2023-02-05T12:25:53.819Z,5.2
2023-02-05T12:31:54.018Z,5.4
2023-02-05T12:37:53.863Z,5.3
2023-02-05T12:43:53.821Z,5.3
2023-02-05T12:49:53.802Z,5.4
2023-02-05T12:55:53.820Z,5.1
2023-02-05T13:01:53.816Z,5.2
2023-02-05T13:07:53.809Z,5.2
2023-02-05T13:13:53.906Z,5.2
2023-02-05T13:19:53.805Z,5.3
2023-02-05T13:25:53.817Z,5.3
2023-02-05T13:31:53.839Z,5.2
2023-02-05T13:37:53.815Z,5.3
2023-02-05T13:43:53.804Z,5.3
2023-02-05T13:49:53.825Z,5.2
2023-02-05T13:55:53.795Z,5.2
2023-02-05T14:01:53.964Z,5.1
2023-02-05T14:07:53.854Z,5.2
2023-02-05T14:13:53.788Z,5.2
2023-02-05T14:20:04.083Z,5.2
2023-02-05T14:25:53.836Z,5.2
2023-02-05T14:31:53.792Z,5.2
2023-02-05T14:37:53.826Z,5.1
2023-02-05T14:43:53.837Z,5.1
2023-02-05T14:49:53.784Z,5
2023-02-05T14:55:53.779Z,5
2023-02-05T15:01:54.596Z,5
2023-02-05T15:07:53.785Z,5.1
2023-02-05T15:13:53.817Z,4.9
2023-02-05T15:19:53.807Z,5
2023-02-05T15:25:53.785Z,4.9
2023-02-05T15:31:53.779Z,4.8
2023-02-05T15:37:53.868Z,4.8
2023-02-05T15:43:53.756Z,4.6
2023-02-05T15:49:53.784Z,4.6
2023-02-05T15:55:53.807Z,4.6
2023-02-05T16:01:53.828Z,4.6
2023-02-05T16:07:53.776Z,4.6
2023-02-05T16:13:53.805Z,4.6
2023-02-05T16:19:53.770Z,4.6
2023-02-05T16:25:53.778Z,4.6
2023-02-05T16:31:55.973Z,4.5
2023-02-05T16:37:53.760Z,4.6
2023-02-05T16:43:53.779Z,4.5
2023-02-05T16:49:53.802Z,4.5
2023-02-05T16:55:53.810Z,4.4
2023-02-05T17:01:53.860Z,4.6
2023-02-05T17:07:53.939Z,4.6
2023-02-05T17:13:53.770Z,4.6
2023-02-05T17:19:53.760Z,4.7
2023-02-05T17:25:53.793Z,4.6
2023-02-05T17:31:53.825Z,4.6
2023-02-05T17:37:53.792Z,4.6
2023-02-05T17:43:53.783Z,4.7
2023-02-05T17:49:53.762Z,4.8
2023-02-05T17:55:53.777Z,4.9
2023-02-05T18:01:53.869Z,5
2023-02-05T18:07:53.770Z,4.9
2023-02-05T18:13:53.765Z,4.7
2023-02-05T18:19:53.803Z,4.7
2023-02-05T18:25:53.765Z,4.8
2023-02-05T18:31:53.746Z,4.8
2023-02-05T18:37:53.795Z,4.7
2023-02-05T18:43:53.772Z,4.7
2023-02-05T18:49:53.762Z,4.6
2023-02-05T18:55:53.753Z,4.6
2023-02-05T19:01:53.741Z,4.6
2023-02-05T19:07:53.732Z,4.7
2023-02-05T19:13:53.776Z,4.6
2023-02-05T19:19:53.748Z,4.6
2023-02-05T19:25:53.719Z,4.6
2023-02-05T19:31:53.787Z,4.5
2023-02-05T19:37:53.753Z,4.4
2023-02-05T19:43:54.101Z,4.4
2023-02-05T19:49:53.778Z,4.5
2023-02-05T19:55:53.740Z,4.5
2023-02-05T20:01:53.755Z,4.5
2023-02-05T20:07:53.784Z,4.5
2023-02-05T20:13:53.734Z,4.6
2023-02-05T20:20:02.544Z,4.7
2023-02-05T20:25:53.766Z,4.7
2023-02-05T20:31:53.790Z,4.9
2023-02-05T20:37:53.801Z,4.7
2023-02-05T20:43:53.886Z,4.5
2023-02-05T20:49:53.748Z,4.5
2023-02-05T20:55:53.765Z,4.5
2023-02-05T21:01:53.774Z,4.5
2023-02-05T21:07:53.718Z,4.5
2023-02-05T21:13:53.750Z,4.5
2023-02-05T21:19:53.754Z,4.5
2023-02-05T21:25:53.991Z,4.6
2023-02-05T21:31:53.936Z,4.5
2023-02-05T21:37:53.801Z,4.5
2023-02-05T21:43:53.704Z,4.4
2023-02-05T21:49:53.736Z,4.4
2023-02-05T21:55:53.746Z,4.4
2023-02-05T22:01:53.756Z,4.4
2023-02-05T22:07:53.725Z,4.3
2023-02-05T22:13:53.801Z,4.3
2023-02-05T22:19:53.728Z,4.3
2023-02-05T22:26:04.009Z,4.3
2023-02-05T22:31:53.825Z,4.3
2023-02-05T22:37:53.731Z,4.2
2023-02-05T22:43:53.715Z,4.1
2023-02-05T22:49:54.048Z,4.2
2023-02-05T22:55:53.770Z,4.2
2023-02-05T23:01:53.722Z,4.1
2023-02-05T23:07:53.734Z,4.2
2023-02-05T23:13:53.733Z,4.2
2023-02-05T23:19:53.746Z,4.1
2023-02-05T23:25:53.736Z,4.3
2023-02-05T23:31:53.691Z,4.2
2023-02-05T23:37:53.718Z,4.2
2023-02-05T23:43:53.834Z,4.1
2023-02-05T23:49:53.775Z,4.1
2023-02-05T23:55:53.710Z,4
